Time;durP1;ratioP1;P1;durP2;ratioP2;P2;SDS_P1;SDS_P2;PMS_P1;PMS_P2;Temp;Humidity;BMP_temperature;BMP_pressure;BME280_temperature;BME280_humidity;BME280_pressure;Samples;Min_cycle;Max_cycle;Signal;HPM_P1;HPM_P2
2023/12/14 07:01:21;;;;;;;1.23;1.13;;;8.30;99.90;11.60;101362.00;;;;6095363;23;1730821;-67
2023/12/14 07:03:53;;;;;;;0.30;0.30;;;8.40;99.90;11.50;101385.00;;;;6216162;23;20230;-68
2023/12/14 07:06:23;;;;;;;0.30;0.30;;;8.40;99.90;11.70;101379.00;;;;6217195;23;20159;-68
2023/12/14 07:08:51;;;;;;;0.50;0.50;;;8.50;99.90;11.90;101388.00;;;;6216103;23;20218;-67
2023/12/14 07:11:21;;;;;;;0.30;0.30;;;8.60;99.90;11.80;101391.00;;;;6215050;23;20146;-67
2023/12/14 07:13:47;;;;;;;0.30;0.30;;;8.60;99.90;11.70;101387.00;;;;6214691;23;20177;-67
2023/12/14 07:16:23;;;;;;;1.07;0.73;;;8.50;99.90;11.90;101393.00;;;;6217242;23;20452;-67
2023/12/14 07:18:55;;;;;;;0.40;0.40;;;8.50;99.90;11.70;101394.00;;;;6215511;23;20162;-67
2023/12/14 07:21:25;;;;;;;0.30;0.30;;;8.60;99.90;11.90;101406.00;;;;6190430;23;20169;-67
2023/12/14 07:23:57;;;;;;;1.40;1.17;;;8.80;99.90;11.60;101407.00;;;;6216316;23;20542;-67
2023/12/14 07:26:23;;;;;;;0.30;0.30;;;8.80;99.90;11.90;101415.00;;;;6217666;23;20512;-67
2023/12/14 07:28:59;;;;;;;0.30;0.30;;;8.70;99.90;12.20;101424.00;;;;6217264;23;20277;-67
2023/12/14 07:31:25;;;;;;;0.40;0.40;;;8.70;99.90;12.20;101405.00;;;;6215037;23;20193;-67
2023/12/14 07:33:54;;;;;;;0.60;0.60;;;8.80;99.90;12.50;101429.00;;;;6215588;23;20313;-67
2023/12/14 07:36:22;;;;;;;0.40;0.37;;;9.00;99.90;11.90;101437.00;;;;6215964;23;20155;-67
2023/12/14 07:38:51;;;;;;;0.40;0.40;;;8.90;99.90;12.00;101436.00;;;;6190883;23;20154;-67
2023/12/14 07:41:17;;;;;;;1.50;1.27;;;8.90;99.90;12.50;101439.00;;;;6215679;23;20475;-67
2023/12/14 07:43:46;;;;;;;0.40;0.40;;;9.00;99.90;12.30;101452.00;;;;6215460;23;20177;-67
2023/12/14 07:46:18;;;;;;;0.40;0.40;;;9.10;99.90;12.30;101452.00;;;;6214346;23;20421;-68
2023/12/14 07:48:47;;;;;;;0.40;0.40;;;9.10;99.90;12.20;101446.00;;;;6217174;23;20179;-67
2023/12/14 07:51:13;;;;;;;0.30;0.30;;;9.00;99.90;11.90;101441.00;;;;6217235;23;20150;-67
2023/12/14 07:53:40;;;;;;;0.30;0.30;;;8.90;99.90;11.90;101433.00;;;;6215772;23;20170;-67
2023/12/14 07:56:07;;;;;;;0.30;0.30;;;8.80;99.90;11.70;101452.00;;;;6187197;23;20610;-67
2023/12/14 07:58:42;;;;;;;2.40;1.43;;;8.80;99.90;12.10;101420.00;;;;6216930;23;20143;-67
2023/12/14 08:01:13;;;;;;;0.30;0.30;;;8.80;99.90;11.70;101463.00;;;;6216794;23;20162;-66
2023/12/14 08:03:39;;;;;;;0.30;0.30;;;8.70;99.90;12.00;101470.00;;;;6215460;23;20182;-67
2023/12/14 08:06:08;;;;;;;0.20;0.20;;;8.70;99.90;11.90;101474.00;;;;6214939;23;20142;-67
2023/12/14 08:08:43;;;;;;;5.40;5.20;;;8.70;99.90;11.70;101472.00;;;;6214917;23;20150;-68
2023/12/14 08:11:12;;;;;;;0.80;0.80;;;8.70;99.90;11.60;101455.00;;;;6215300;23;20202;-68
2023/12/14 08:13:38;;;;;;;0.40;0.40;;;8.50;99.90;11.60;101480.00;;;;6190399;23;20251;-68
2023/12/14 08:16:11;;;;;;;0.30;0.30;;;8.40;99.90;11.60;101484.00;;;;6216244;23;20235;-68
2023/12/14 08:18:37;;;;;;;0.30;0.30;;;8.40;99.90;11.60;101508.00;;;;6212547;23;20461;-68
2023/12/14 08:21:04;;;;;;;0.20;0.20;;;8.40;99.90;11.70;101507.00;;;;6215394;23;20151;-68
2023/12/14 08:23:36;;;;;;;0.30;0.30;;;8.40;99.90;12.20;101512.00;;;;6213398;23;20496;-68
2023/12/14 08:26:04;;;;;;;0.20;0.20;;;8.60;99.90;12.20;101518.00;;;;6214869;23;20154;-68
2023/12/14 08:28:30;;;;;;;0.30;0.30;;;8.70;99.90;12.30;101525.00;;;;6214640;23;20140;-68
2023/12/14 08:30:58;;;;;;;0.30;0.30;;;8.90;99.90;12.40;101537.00;;;;6216043;23;20164;-68
2023/12/14 08:33:41;;;;;;;0.30;0.30;;;8.90;99.90;12.60;101539.00;;;;6216087;23;20681;-68
2023/12/14 08:36:16;;;;;;;0.30;0.30;;;9.10;99.90;13.20;101555.00;;;;6216186;23;20146;-68
2023/12/14 08:38:48;;;;;;;0.30;0.30;;;9.50;99.90;12.40;101557.00;;;;6215289;23;20552;-67
2023/12/14 08:41:15;;;;;;;0.30;0.30;;;9.50;99.90;12.50;101551.00;;;;6189647;23;20160;-67
2023/12/14 08:43:41;;;;;;;0.30;0.30;;;9.30;99.90;12.10;101548.00;;;;6189946;23;20208;-66
2023/12/14 08:46:15;;;;;;;0.30;0.30;;;9.20;99.90;13.00;101560.00;;;;6215091;23;20215;-67
2023/12/14 08:48:47;;;;;;;0.30;0.30;;;9.30;99.90;13.20;101559.00;;;;6216428;23;20206;-67
2023/12/14 08:51:26;;;;;;;0.30;0.30;;;9.60;99.90;13.20;101564.00;;;;6189845;23;20207;-67
2023/12/14 08:54:04;;;;;;;0.30;0.30;;;9.60;99.90;13.00;101583.00;;;;6216341;23;20227;-66
2023/12/14 08:56:33;;;;;;;1.63;1.53;;;9.70;99.90;13.20;101585.00;;;;6216052;23;20561;-67
2023/12/14 08:59:10;;;;;;;2.13;1.93;;;9.80;99.90;13.30;101593.00;;;;6215153;23;20167;-67
2023/12/14 09:01:45;;;;;;;0.30;0.30;;;10.00;99.90;13.20;101598.00;;;;6215812;23;20194;-67
2023/12/14 09:04:19;;;;;;;0.30;0.30;;;10.00;99.90;13.50;101606.00;;;;6214283;23;20158;-67
2023/12/14 09:06:53;;;;;;;0.30;0.30;;;10.00;99.90;13.40;101604.00;;;;6189736;23;20166;-68
2023/12/14 09:09:24;;;;;;;0.30;0.30;;;10.10;99.90;13.30;101614.00;;;;6216580;23;20166;-68
2023/12/14 09:12:01;;;;;;;0.30;0.30;;;9.90;99.90;13.50;101627.00;;;;6215505;23;20614;-68
2023/12/14 09:14:33;;;;;;;0.30;0.30;;;9.90;99.90;13.10;101592.00;;;;6214062;23;20155;-68
2023/12/14 09:17:01;;;;;;;0.50;0.50;;;10.00;99.90;13.60;101625.00;;;;6214229;23;20148;-68
2023/12/14 09:19:36;;;;;;;0.30;0.30;;;10.00;99.90;13.50;101621.00;;;;6214693;23;20142;-67
2023/12/14 09:22:09;;;;;;;1.07;1.00;;;10.10;99.90;13.80;101624.00;;;;6216229;23;20171;-69
2023/12/14 09:24:35;;;;;;;0.50;0.50;;;10.30;99.90;13.40;101628.00;;;;6214784;23;20179;-67
2023/12/14 09:27:02;;;;;;;0.47;0.47;;;10.30;99.90;13.50;101633.00;;;;6189196;23;20226;-67
2023/12/14 09:29:30;;;;;;;0.87;0.87;;;10.20;99.90;12.70;101615.00;;;;6214582;23;20163;-67
2023/12/14 09:32:02;;;;;;;0.40;0.40;;;9.80;99.90;12.80;101631.00;;;;6214487;23;20169;-68
2023/12/14 09:34:31;;;;;;;0.90;0.80;;;9.70;99.90;13.10;101634.00;;;;6214774;23;20154;-67
2023/12/14 09:37:03;;;;;;;0.20;0.20;;;9.90;99.90;13.20;101649.00;;;;6214732;23;20143;-68
2023/12/14 09:39:36;;;;;;;0.30;0.30;;;9.80;99.90;13.30;101648.00;;;;6214667;23;20155;-68
2023/12/14 09:42:10;;;;;;;0.30;0.30;;;9.90;99.90;13.60;101658.00;;;;6215335;23;20543;-68
2023/12/14 09:44:37;;;;;;;0.30;0.30;;;10.10;99.90;13.60;101587.00;;;;6189642;23;20547;-68
2023/12/14 09:47:09;;;;;;;0.40;0.40;;;10.20;99.90;13.70;101668.00;;;;6213345;23;20477;-68
2023/12/14 09:49:37;;;;;;;0.30;0.30;;;10.30;99.90;14.00;101670.00;;;;6213196;23;20141;-67
2023/12/14 09:52:12;;;;;;;0.30;0.30;;;10.30;99.90;13.90;101667.00;;;;6213917;23;20178;-69
2023/12/14 09:54:48;;;;;;;0.30;0.30;;;10.50;99.90;14.00;101679.00;;;;6188718;23;20154;-69
2023/12/14 09:57:24;;;;;;;0.30;0.30;;;10.50;99.90;14.20;101694.00;;;;6216015;23;20239;-68
2023/12/14 09:59:57;;;;;;;0.30;0.30;;;10.50;99.90;14.00;101691.00;;;;6212877;23;20654;-69
2023/12/14 10:02:27;;;;;;;0.30;0.30;;;10.50;99.90;13.90;101693.00;;;;6213891;23;20162;-69
2023/12/14 10:05:01;;;;;;;0.30;0.30;;;10.50;99.90;14.00;101667.00;;;;6215646;23;20228;-69
2023/12/14 10:07:52;;;;;;;0.30;0.30;;;10.50;99.90;13.80;101709.00;;;;6187204;23;20156;-69
2023/12/14 10:10:32;;;;;;;0.40;0.40;;;10.60;99.90;14.30;101717.00;;;;6212998;23;20242;-68
2023/12/14 10:12:58;;;;;;;0.30;0.30;;;10.60;99.90;14.50;101721.00;;;;6188119;23;20181;-69
2023/12/14 10:15:27;;;;;;;0.30;0.30;;;10.80;99.90;14.70;101724.00;;;;6212875;23;20457;-69
2023/12/14 10:17:54;;;;;;;0.30;0.30;;;10.90;99.90;14.70;101725.00;;;;6213731;23;20162;-69
2023/12/14 10:20:26;;;;;;;0.30;0.30;;;11.00;99.90;14.90;101729.00;;;;6214061;23;20226;-69
2023/12/14 10:33:28;;;;;;;0.20;0.20;;;9.50;99.90;12.30;101691.00;;;;5069142;28;20559;-69
2023/12/14 10:35:54;;;;;;;0.20;0.20;;;9.70;99.90;13.40;101717.00;;;;5050241;28;20544;-69
2023/12/14 10:38:24;;;;;;;0.20;0.20;;;10.00;99.90;14.30;101744.00;;;;5048842;28;20192;-69
2023/12/14 10:40:53;;;;;;;0.40;0.40;;;10.50;99.90;14.10;101737.00;;;;5048831;28;20778;-70
2023/12/14 10:43:28;;;;;;;0.20;0.20;;;10.70;99.90;14.40;101718.00;;;;5048848;28;20214;-69
2023/12/14 10:45:54;;;;;;;0.20;0.20;;;10.80;99.90;14.30;101753.00;;;;5059966;28;20179;-69
2023/12/14 10:48:21;;;;;;;0.30;0.30;;;10.80;99.90;14.30;101755.00;;;;5064269;28;20851;-69
2023/12/14 10:50:50;;;;;;;2.20;2.03;;;10.90;99.90;14.80;101761.00;;;;5055202;28;20211;-69
2023/12/14 10:53:16;;;;;;;1.27;1.23;;;11.10;99.90;14.10;101767.00;;;;5040340;28;20210;-69
2023/12/14 10:55:47;;;;;;;0.20;0.20;;;11.00;99.90;13.90;101734.00;;;;5047996;28;20186;-69
2023/12/14 10:58:14;;;;;;;0.30;0.30;;;10.80;99.90;12.50;101747.00;;;;5032158;28;20688;-69
2023/12/14 11:00:47;;;;;;;0.77;0.77;;;10.00;99.90;12.90;101737.00;;;;5065524;28;20225;-69
2023/12/14 11:03:14;;;;;;;0.20;0.20;;;9.90;99.90;13.60;101757.00;;;;5048306;28;20663;-69
2023/12/14 11:06:17;;;;;;;0.20;0.20;;;10.20;99.90;13.80;101761.00;;;;5050205;28;20300;-69
2023/12/14 11:08:47;;;;;;;0.20;0.20;;;10.40;99.90;13.70;101772.00;;;;5051471;28;20192;-69
2023/12/14 11:12:22;;;;;;;0.53;0.53;;;10.40;99.90;13.80;101778.00;;;;5064737;28;20222;-68
2023/12/14 11:14:58;;;;;;;0.20;0.20;;;10.50;99.90;13.70;101784.00;;;;5046850;28;20557;-69
2023/12/14 11:17:25;;;;;;;0.40;0.40;;;10.60;99.90;13.70;101780.00;;;;5061232;28;20261;-69
2023/12/14 11:20:31;;;;;;;0.60;0.60;;;10.60;99.90;12.10;101761.00;;;;5039379;28;20190;-69
2023/12/14 11:23:08;;;;;;;0.20;0.20;;;9.90;99.90;11.30;101728.00;;;;5043988;28;20279;-69
2023/12/14 11:26:59;;;;;;;0.33;0.33;;;9.00;99.90;10.10;101721.00;;;;5049619;28;20186;-69
2023/12/14 11:29:30;;;;;;;0.20;0.20;;;8.80;99.90;11.30;101715.00;;;;5049226;28;20219;-69
2023/12/14 11:32:39;;;;;;;0.20;0.20;;;8.60;99.90;11.40;101715.00;;;;5049147;28;20592;-69
2023/12/14 11:35:40;;;;;;;0.73;0.73;;;8.60;99.90;10.90;101715.00;;;;5022725;28;20565;-69
2023/12/14 11:38:35;;;;;;;0.57;0.57;;;8.60;99.90;11.10;101729.00;;;;5061206;28;20197;-69
2023/12/14 11:41:29;;;;;;;0.70;0.50;;;8.60;99.90;11.50;101726.00;;;;5047799;28;20189;-69
2023/12/14 11:44:47;;;;;;;0.20;0.20;;;8.60;99.90;10.90;101730.00;;;;5018657;28;20195;-69
2023/12/14 11:47:56;;;;;;;0.70;0.70;;;8.50;99.90;12.00;101735.00;;;;5009404;28;20255;-69
2023/12/14 11:51:06;;;;;;;0.20;0.20;;;8.80;99.90;11.30;101733.00;;;;4959665;28;20259;-69
2023/12/14 11:53:53;;;;;;;0.20;0.20;;;8.90;99.90;12.40;101732.00;;;;4971048;28;20198;-69
2023/12/14 11:56:53;;;;;;;0.30;0.30;;;9.20;99.90;12.10;101711.00;;;;5024619;28;20208;-69
2023/12/14 11:59:45;;;;;;;0.80;0.80;;;9.20;99.90;11.20;101731.00;;;;5023981;28;20206;-69
2023/12/14 12:02:34;;;;;;;0.20;0.20;;;9.00;99.90;10.60;101717.00;;;;4993268;28;20649;-69
2023/12/14 12:05:30;;;;;;;0.20;0.20;;;8.50;99.90;12.40;101735.00;;;;4993736;28;20199;-69
2023/12/14 12:07:59;;;;;;;0.20;0.20;;;9.10;99.90;12.80;101752.00;;;;5028078;28;20872;-69
2023/12/14 12:11:21;;;;;;;0.60;0.60;;;9.50;99.90;12.10;101720.00;;;;5033526;28;20246;-69
2023/12/14 12:14:13;;;;;;;0.30;0.30;;;9.70;99.90;12.20;101755.00;;;;5033648;28;20459;-69
2023/12/14 12:17:22;;;;;;;1.93;1.73;;;9.60;99.90;12.30;101748.00;;;;5020892;28;20217;-69
2023/12/14 12:20:28;;;;;;;5.87;2.80;;;9.40;99.90;11.00;101744.00;;;;5020323;28;20189;-69
2023/12/14 12:23:25;;;;;;;3.93;2.87;;;9.30;99.90;10.80;101717.00;;;;5025280;28;20243;-69
2023/12/14 12:26:09;;;;;;;0.20;0.20;;;8.80;99.90;10.30;101712.00;;;;5029791;28;20273;-69
2023/12/14 12:28:58;;;;;;;0.33;0.33;;;8.50;99.90;11.30;101712.00;;;;5012251;28;20649;-69
2023/12/14 12:31:40;;;;;;;0.65;0.65;;;8.60;99.90;11.40;101727.00;;;;5033485;28;20456;-69
2023/12/14 12:34:29;;;;;;;1.03;1.03;;;8.90;99.90;10.80;101728.00;;;;5021239;28;20333;-69
2023/12/14 12:37:36;;;;;;;0.20;0.20;;;8.80;99.90;11.70;101724.00;;;;5036755;28;20206;-69
2023/12/14 12:40:44;;;;;;;0.20;0.20;;;8.80;99.90;11.40;101731.00;;;;5033688;28;20190;-69
2023/12/14 12:43:51;;;;;;;4.10;3.37;;;9.10;99.90;11.40;101724.00;;;;5046663;28;20205;-69
2023/12/14 12:47:00;;;;;;;0.20;0.20;;;8.80;99.90;12.30;101738.00;;;;5033216;28;20229;-70
2023/12/14 12:50:04;;;;;;;0.90;0.77;;;9.40;99.90;12.60;101747.00;;;;5033446;28;20182;-69
2023/12/14 12:52:37;;;;;;;0.30;0.30;;;9.60;99.90;11.80;101729.00;;;;5049731;28;20204;-69
2023/12/14 12:55:15;;;;;;;0.30;0.30;;;9.30;99.90;12.00;101730.00;;;;5048157;28;20260;-68
2023/12/14 12:57:44;;;;;;;1.10;0.97;;;9.40;99.90;11.30;101737.00;;;;5031213;28;20234;-69
2023/12/14 13:00:20;;;;;;;0.50;0.50;;;9.30;99.90;10.70;101736.00;;;;5026932;28;20638;-69
2023/12/14 13:02:49;;;;;;;1.00;1.00;;;9.00;99.90;11.30;101734.00;;;;5033091;28;20204;-69
2023/12/14 13:05:16;;;;;;;3.90;1.27;;;9.00;99.90;10.80;101733.00;;;;5033105;28;20184;-69
2023/12/14 13:07:49;;;;;;;1.33;1.23;;;8.90;99.90;10.20;101735.00;;;;5032347;28;20181;-69
2023/12/14 13:10:22;;;;;;;0.40;0.40;;;8.70;99.90;11.20;101736.00;;;;5033364;28;20205;-69
2023/12/14 13:12:54;;;;;;;0.90;0.90;;;8.70;99.90;11.20;101746.00;;;;5032943;28;20275;-69
2023/12/14 13:15:26;;;;;;;0.20;0.20;;;9.10;99.90;12.40;101748.00;;;;5034407;28;20189;-69
2023/12/14 13:17:55;;;;;;;0.20;0.20;;;9.40;99.90;12.90;101756.00;;;;5033627;28;20218;-69
2023/12/14 13:20:35;;;;;;;1.43;1.33;;;9.80;99.90;11.70;101752.00;;;;5033196;28;20178;-69
2023/12/14 13:23:02;;;;;;;0.53;0.53;;;9.50;99.90;11.40;101751.00;;;;5049423;28;20197;-69
2023/12/14 13:25:28;;;;;;;0.30;0.30;;;9.30;99.90;11.00;101755.00;;;;5049026;28;20255;-69
2023/12/14 13:27:54;;;;;;;1.30;1.27;;;9.10;99.90;10.90;101752.00;;;;5033532;28;20215;-69
2023/12/14 13:30:23;;;;;;;0.97;0.97;;;9.00;99.90;10.90;101750.00;;;;5032987;28;20657;-69
2023/12/14 13:32:54;;;;;;;0.23;0.23;;;9.00;99.90;11.80;101746.00;;;;5033532;28;20712;-69
2023/12/14 13:35:27;;;;;;;0.40;0.40;;;9.20;99.90;12.00;101751.00;;;;5031849;28;20174;-69
2023/12/14 13:37:56;;;;;;;2.73;2.63;;;9.40;99.90;11.80;101763.00;;;;5032440;28;20194;-69
2023/12/14 13:40:30;;;;;;;1.40;1.10;;;9.50;99.90;12.70;101769.00;;;;5033455;28;20185;-69
2023/12/14 13:43:09;;;;;;;0.30;0.30;;;9.70;99.90;11.60;101786.00;;;;5032426;28;20620;-69
2023/12/14 13:45:47;;;;;;;1.50;1.40;;;9.50;99.90;12.00;101749.00;;;;5014831;28;20189;-69
2023/12/14 13:48:18;;;;;;;0.40;0.40;;;9.50;99.90;12.90;101785.00;;;;5024588;28;20602;-69
2023/12/14 13:50:48;;;;;;;1.53;1.43;;;9.90;99.90;13.10;101812.00;;;;5028273;28;20179;-69
2023/12/14 13:53:14;;;;;;;1.33;1.23;;;10.20;99.90;12.60;101777.00;;;;5032974;28;20653;-69
2023/12/14 13:55:42;;;;;;;0.30;0.30;;;10.00;99.90;13.40;101818.00;;;;5032077;28;20201;-69
2023/12/14 13:58:11;;;;;;;0.30;0.30;;;10.20;99.90;13.90;101806.00;;;;5023336;28;20191;-69
2023/12/14 14:00:39;;;;;;;1.07;1.03;;;10.50;99.90;14.20;101837.00;;;;5005395;28;20226;-69
2023/12/14 14:03:14;;;;;;;0.40;0.40;;;10.80;99.90;12.70;101844.00;;;;5031505;28;20202;-69
2023/12/14 14:05:44;;;;;;;0.20;0.20;;;10.50;99.90;12.30;101826.00;;;;5030551;28;20261;-69
2023/12/14 14:08:11;;;;;;;0.20;0.20;;;9.90;99.90;13.10;101823.00;;;;5037280;28;20220;-69
2023/12/14 14:10:37;;;;;;;0.30;0.30;;;10.10;99.90;13.60;101824.00;;;;5048076;28;20191;-69
2023/12/14 14:13:06;;;;;;;1.33;1.33;;;10.30;99.90;13.20;101839.00;;;;5032709;28;20225;-69
2023/12/14 14:15:37;;;;;;;1.37;1.27;;;10.30;99.90;13.70;101826.00;;;;5031755;28;20644;-69
2023/12/14 14:18:12;;;;;;;0.40;0.40;;;10.50;99.90;14.00;101865.00;;;;5031536;28;20429;-69
2023/12/14 14:20:41;;;;;;;0.20;0.20;;;10.70;99.90;13.80;101876.00;;;;5033260;28;20189;-69
2023/12/14 14:23:09;;;;;;;0.30;0.30;;;10.80;99.90;14.20;101875.00;;;;5031436;28;20189;-69
2023/12/14 14:25:41;;;;;;;0.30;0.30;;;10.80;99.90;13.90;101886.00;;;;5043768;28;20194;-68
2023/12/14 14:28:08;;;;;;;0.30;0.30;;;10.80;99.90;13.90;101881.00;;;;5045151;28;20187;-69
2023/12/14 14:30:35;;;;;;;0.30;0.30;;;10.70;99.90;14.20;101899.00;;;;5014893;28;20663;-68
2023/12/14 14:33:49;;;;;;;0.30;0.30;;;10.90;99.90;14.30;101904.00;;;;5047583;28;20665;-69
2023/12/14 14:36:55;;;;;;;0.30;0.30;;;11.00;99.90;13.90;101919.00;;;;5047971;28;20187;-68
2023/12/14 14:40:03;;;;;;;0.30;0.30;;;10.90;99.90;14.50;101920.00;;;;5044511;28;20205;-68
2023/12/14 14:43:01;;;;;;;0.30;0.30;;;10.90;99.90;14.00;101916.00;;;;5029111;28;20201;-68
2023/12/14 14:45:46;;;;;;;0.30;0.30;;;10.90;99.90;14.20;101919.00;;;;5042478;28;20259;-68
2023/12/14 14:48:55;;;;;;;0.30;0.30;;;10.70;99.90;14.30;101914.00;;;;5031556;28;20181;-68
2023/12/14 14:52:06;;;;;;;0.30;0.30;;;10.80;99.90;14.60;101925.00;;;;5034209;28;20225;-68
2023/12/14 14:54:50;;;;;;;0.30;0.30;;;11.00;99.90;14.30;101919.00;;;;5031012;28;20189;-68
2023/12/14 14:57:41;;;;;;;0.30;0.30;;;10.90;99.90;14.50;101904.00;;;;5027935;28;20187;-68
2023/12/14 15:00:45;;;;;;;0.30;0.30;;;11.00;99.90;13.90;101944.00;;;;5020385;28;20183;-68
2023/12/14 15:03:55;;;;;;;0.30;0.30;;;10.80;99.90;14.20;101947.00;;;;5013166;28;20569;-68
2023/12/14 15:06:58;;;;;;;0.30;0.30;;;10.60;99.90;14.20;101961.00;;;;5064540;28;20288;-68
2023/12/14 15:10:17;;;;;;;0.30;0.30;;;10.80;99.90;14.10;101968.00;;;;5044089;28;20198;-68
2023/12/14 15:13:18;;;;;;;0.30;0.30;;;10.80;99.90;14.10;101974.00;;;;5028218;28;20620;-68
2023/12/14 15:16:26;;;;;;;0.30;0.30;;;10.60;99.90;14.10;101968.00;;;;5033942;28;20236;-68
2023/12/14 15:19:26;;;;;;;0.23;0.23;;;10.60;99.90;13.60;101975.00;;;;5030675;28;20555;-68
2023/12/14 15:22:10;;;;;;;0.27;0.27;;;10.50;99.90;13.90;101982.00;;;;5044176;28;20193;-68
2023/12/14 15:24:37;;;;;;;0.30;0.30;;;10.40;99.90;13.80;101988.00;;;;5026536;28;20199;-66
2023/12/14 15:27:23;;;;;;;0.23;0.23;;;10.30;99.90;14.10;102005.00;;;;5036150;28;20279;-66
2023/12/14 15:30:11;;;;;;;0.30;0.30;;;10.60;99.90;14.00;102009.00;;;;5048862;28;20201;-68
2023/12/14 15:32:37;;;;;;;0.30;0.30;;;10.60;99.90;14.10;102019.00;;;;5058374;28;20229;-65
2023/12/14 15:35:29;;;;;;;2.10;1.90;;;10.60;99.90;14.00;102021.00;;;;5035602;28;20191;-66
2023/12/14 15:38:18;;;;;;;0.20;0.20;;;10.60;99.90;14.00;102010.00;;;;5033437;28;20211;-66
2023/12/14 15:41:20;;;;;;;0.20;0.20;;;10.60;99.90;14.20;102004.00;;;;5045935;28;20191;-66
2023/12/14 15:44:22;;;;;;;0.30;0.30;;;10.70;99.90;13.70;102017.00;;;;5050332;28;20532;-66
2023/12/14 15:47:22;;;;;;;0.20;0.20;;;10.40;99.90;13.90;102040.00;;;;5029492;28;20195;-66
2023/12/14 15:50:09;;;;;;;0.20;0.20;;;10.50;99.90;13.90;102048.00;;;;5042080;28;20192;-66
2023/12/14 15:52:44;;;;;;;1.73;1.63;;;10.40;99.90;13.00;102047.00;;;;5021699;28;20211;-66
2023/12/14 15:55:29;;;;;;;0.40;0.40;;;10.20;99.90;13.10;102046.00;;;;5031919;28;20419;-66
2023/12/14 15:58:38;;;;;;;1.43;0.70;;;9.90;99.90;13.70;102055.00;;;;5032106;28;20188;-66
2023/12/14 16:01:04;;;;;;;0.30;0.30;;;10.20;99.90;12.10;102055.00;;;;5025418;28;20212;-66
2023/12/14 16:04:05;;;;;;;1.27;0.73;;;9.80;99.90;12.80;102053.00;;;;5040781;28;20198;-66
2023/12/14 16:07:00;;;;;;;0.60;0.60;;;9.70;99.90;12.00;102050.00;;;;5032292;28;20206;-66
2023/12/14 16:09:31;;;;;;;0.57;0.57;;;9.50;99.90;11.60;102043.00;;;;5057720;28;20191;-66
2023/12/14 16:12:03;;;;;;;0.60;0.60;;;9.20;99.90;11.90;102063.00;;;;5017349;28;20203;-67
2023/12/14 16:14:59;;;;;;;0.20;0.20;;;9.20;99.90;12.40;102025.00;;;;5035234;28;20175;-66
2023/12/14 16:17:46;;;;;;;1.43;0.47;;;9.30;99.90;12.00;102052.00;;;;5034428;28;20187;-66
2023/12/14 16:20:49;;;;;;;0.20;0.20;;;9.30;99.90;12.30;102066.00;;;;5029034;28;20183;-73
2023/12/14 16:23:18;;;;;;;0.40;0.40;;;9.20;99.90;11.70;102062.00;;;;5014412;28;20195;-70
2023/12/14 16:25:50;;;;;;;0.60;0.60;;;9.10;99.90;12.30;102063.00;;;;5033083;28;20538;-67
2023/12/14 16:28:18;;;;;;;0.30;0.30;;;9.20;99.90;12.30;102075.00;;;;5032176;28;20202;-67
2023/12/14 16:30:44;;;;;;;0.40;0.40;;;9.20;99.90;11.60;102064.00;;;;5034388;28;20179;-67
2023/12/14 16:33:12;;;;;;;0.20;0.20;;;9.00;99.90;11.70;102071.00;;;;5032978;28;20219;-67
2023/12/14 16:35:40;;;;;;;0.20;0.20;;;9.00;99.90;12.40;102050.00;;;;5049779;28;20200;-67
2023/12/14 16:38:06;;;;;;;2.93;2.83;;;9.20;99.90;11.80;102084.00;;;;5034956;28;20241;-67
2023/12/14 16:40:32;;;;;;;1.17;1.07;;;9.20;99.90;11.70;102074.00;;;;5034630;28;20689;-67
2023/12/14 16:42:58;;;;;;;0.30;0.30;;;9.00;99.90;12.00;102082.00;;;;5033994;28;20194;-67
2023/12/14 16:45:24;;;;;;;0.27;0.27;;;9.20;99.90;11.70;102051.00;;;;5034931;28;20612;-67
2023/12/14 16:47:53;;;;;;;0.20;0.20;;;9.00;99.90;11.20;102084.00;;;;5033412;28;20254;-67
2023/12/14 16:50:21;;;;;;;3.28;0.90;;;8.80;99.90;11.70;102092.00;;;;5033774;28;20475;-67
2023/12/14 16:52:47;;;;;;;0.67;0.67;;;9.00;99.90;10.90;102091.00;;;;5033367;28;20204;-67
2023/12/14 16:55:16;;;;;;;0.20;0.20;;;8.80;99.90;11.50;102088.00;;;;5032856;28;20241;-67
2023/12/14 16:57:50;;;;;;;0.87;0.57;;;8.80;99.90;11.30;102088.00;;;;5032492;28;20189;-67
2023/12/14 17:00:21;;;;;;;0.20;0.20;;;8.70;99.90;11.00;102081.00;;;;5033763;28;20681;-67
2023/12/14 17:02:47;;;;;;;0.77;0.77;;;8.60;99.90;11.30;102091.00;;;;5039746;28;20215;-67
2023/12/14 17:05:13;;;;;;;0.20;0.20;;;8.60;99.90;11.40;102098.00;;;;5030331;28;20218;-67
2023/12/14 17:08:10;;;;;;;0.20;0.20;;;8.60;99.90;12.40;102112.00;;;;5028050;28;20273;-67
2023/12/14 17:10:51;;;;;;;0.20;0.20;;;8.90;99.90;12.80;102114.00;;;;5033699;28;20269;-67
2023/12/14 17:13:47;;;;;;;0.20;0.20;;;9.20;99.90;12.70;102119.00;;;;5049502;28;20207;-67
2023/12/14 17:16:53;;;;;;;0.40;0.40;;;9.30;99.90;11.80;102106.00;;;;5030959;28;20651;-67
2023/12/14 17:19:45;;;;;;;0.53;0.53;;;9.20;99.90;11.40;102108.00;;;;5032816;28;20198;-67
2023/12/14 17:22:46;;;;;;;1.17;1.10;;;8.80;99.90;10.60;102112.00;;;;5043701;28;20608;-67
2023/12/14 17:25:12;;;;;;;0.47;0.27;;;8.50;99.90;10.20;102091.00;;;;5048180;28;20289;-67
2023/12/14 17:27:58;;;;;;;0.40;0.40;;;8.20;99.90;10.80;102105.00;;;;5034731;28;20246;-67
2023/12/14 17:30:27;;;;;;;0.37;0.37;;;8.20;99.90;10.30;102106.00;;;;5033151;28;20210;-67
2023/12/14 17:32:55;;;;;;;0.20;0.20;;;8.20;99.90;10.40;102098.00;;;;5033205;28;20243;-66
2023/12/14 17:35:58;;;;;;;0.27;0.27;;;8.10;99.90;10.60;102110.00;;;;5033142;28;20192;-67
2023/12/14 17:39:07;;;;;;;0.30;0.30;;;8.20;99.90;11.00;102112.00;;;;5033181;28;20188;-67
2023/12/14 17:41:47;;;;;;;0.73;0.73;;;8.20;99.90;12.00;102118.00;;;;5024056;28;21024;-67
2023/12/14 17:44:58;;;;;;;0.47;0.47;;;8.70;99.90;12.20;102141.00;;;;5031636;28;20181;-67
2023/12/14 17:48:07;;;;;;;2.50;2.40;;;9.00;99.90;10.70;102128.00;;;;5032999;28;20183;-66
2023/12/14 17:51:01;;;;;;;0.30;0.30;;;8.70;99.90;11.40;102139.00;;;;5023774;28;20203;-67
2023/12/14 17:54:17;;;;;;;0.20;0.20;;;8.70;99.90;10.50;102128.00;;;;5027679;28;20293;-67
2023/12/14 17:57:06;;;;;;;0.53;0.40;;;8.40;99.90;10.60;102121.00;;;;5033803;28;20641;-67
2023/12/14 17:59:52;;;;;;;0.20;0.20;;;8.40;99.90;11.40;102142.00;;;;5041179;28;20210;-67
2023/12/14 18:02:40;;;;;;;0.47;0.47;;;8.60;99.90;11.20;102128.00;;;;5033505;28;20295;-67
2023/12/14 18:05:49;;;;;;;0.40;0.40;;;8.50;99.90;11.30;102131.00;;;;5031967;28;20662;-67
2023/12/14 18:08:41;;;;;;;0.20;0.20;;;8.50;99.90;12.00;102148.00;;;;5034022;28;20198;-67
2023/12/14 18:11:58;;;;;;;0.27;0.27;;;8.90;99.90;12.60;102156.00;;;;5023627;28;20706;-67
2023/12/14 18:14:40;;;;;;;0.20;0.20;;;9.10;99.90;12.10;102165.00;;;;5046861;28;20212;-67
2023/12/14 18:17:37;;;;;;;0.30;0.30;;;9.20;99.90;12.30;102164.00;;;;5026853;28;20243;-67
2023/12/14 18:20:43;;;;;;;0.30;0.30;;;9.10;99.90;12.90;102174.00;;;;5031347;28;20185;-67
2023/12/14 18:23:32;;;;;;;0.30;0.30;;;9.30;99.90;12.80;102179.00;;;;5032854;28;20207;-67
2023/12/14 18:26:27;;;;;;;0.30;0.30;;;9.60;99.90;12.70;102185.00;;;;5045748;28;20209;-67
2023/12/14 18:29:51;;;;;;;0.43;0.43;;;9.50;99.90;12.40;102168.00;;;;5045733;28;20632;-67
2023/12/14 18:32:51;;;;;;;0.40;0.40;;;9.60;99.90;12.90;102170.00;;;;5026402;28;20225;-67
2023/12/14 18:35:59;;;;;;;0.30;0.30;;;9.60;99.90;13.10;102175.00;;;;5030744;28;20201;-67
2023/12/14 18:39:08;;;;;;;0.20;0.20;;;9.70;99.90;11.80;102173.00;;;;5021021;28;20189;-67
2023/12/14 18:42:04;;;;;;;0.67;0.67;;;9.40;99.90;12.50;102182.00;;;;5037857;28;20655;-67
2023/12/14 18:44:51;;;;;;;0.30;0.30;;;9.40;99.90;12.50;102190.00;;;;5021445;28;20201;-67
2023/12/14 18:48:12;;;;;;;0.20;0.20;;;9.40;99.90;12.80;102185.00;;;;5032637;28;20208;-67
2023/12/14 18:51:13;;;;;;;0.20;0.20;;;9.30;99.90;12.00;102154.00;;;;5047986;28;20652;-67
2023/12/14 18:54:11;;;;;;;0.20;0.20;;;9.30;99.90;12.40;102197.00;;;;5032928;28;20252;-67
2023/12/14 18:57:07;;;;;;;0.40;0.40;;;9.20;99.90;12.70;102193.00;;;;5034845;28;20185;-67
2023/12/14 18:59:58;;;;;;;0.30;0.30;;;9.30;99.90;12.50;102214.00;;;;5033916;28;20203;-67
2023/12/14 19:02:35;;;;;;;0.20;0.20;;;9.30;99.90;11.90;102210.00;;;;5041870;28;20332;-67
2023/12/14 19:05:35;;;;;;;0.70;0.70;;;9.00;99.90;12.80;102220.00;;;;5035721;28;20562;-67